CheckWX is a tool to help pilots better visualize weather data.  It is not intended as a substitute for an official pre-flight weather briefing.

04:47:39 UTC

KMGM METAR
Montgomery Regional (Dannelly Field) Airport
Montgomery, Alabama, USA
Current

55 mins ago

KMGM 180353Z 18008KT 10SM CLR 27/21 A2997 RMK AO2 SLP146 T02720211
Observed
Aug-18 @ 03:53 UTC
Wind
  • 180° at 8 KTS
Visibility
10 SM
Flight Rules
VFR
Cloud Levels
  • Clear skies
Temperature
27°C / 81°F
Dewpoint
21°C / 70°F
Heat Index
29°C / 85°F
Humidity
70%
Altimeter
29.97" Hg
Pressure
1014.92 hPa
Previous

2 hours ago

KMGM 180253Z 16007KT 10SM CLR 24/19 A2995 RMK AO2 SLP140 T02440194 53014
Observed
Aug-18 @ 02:53 UTC
Wind
  • 160° at 7 KTS
Visibility
10 SM
Flight Rules
VFR
Cloud Levels
  • Clear skies
Temperature
24°C / 75°F
Dewpoint
19°C / 66°F
Humidity
74%
Altimeter
29.95" Hg
Pressure
1014.22 hPa
Previous

3 hours ago

KMGM 180153Z 00000KT 10SM CLR 26/20 A2994 RMK AO2 SLP135 T02610200
Observed
Aug-18 @ 01:53 UTC
Visibility
10 SM
Flight Rules
VFR
Cloud Levels
  • Clear skies
Temperature
26°C / 79°F
Dewpoint
20°C / 68°F
Humidity
70%
Altimeter
29.94" Hg
Pressure
1013.92 hPa